Arcos de la Frontera, Spain
Current Conditions -  °F | °C
As of 11:00 PM on Friday 28 Nov 2014 (Local Time) from LEJR Reporting Station
Broken Clouds Broken Clouds  
Wind Chill: 55°   Ceiling: 5000
Heat Index: 55°   Visibility: 6mi
Dew Point: 54°   Wind: 6mph
Humidity: 94%   Direction: 180°S
Pressure: 29.21"   Gusts: NA
Location:  36.75°N, 5.81°W
Report Text: LEJR 282200Z 18005KT 120V250 9999 FEW020 FEW025CB BKN050 13/12 Q0989
Loading
Personal Weather Stations






























Interactive Weather Map New forecast layout! Learn more

10-Day Weather Forecast

Advertisements
Track Severe Weather on mobile